createdAt,value
2023-06-30T00:02:01.048Z,0.00
2023-06-30T00:07:24.951Z,0.00
2023-06-30T00:12:16.883Z,0.00
2023-06-30T00:17:16.856Z,0.00
2023-06-30T00:22:16.757Z,0.00
2023-06-30T00:27:16.615Z,0.00
2023-06-30T00:32:16.647Z,0.00
2023-06-30T00:37:16.481Z,0.00
2023-06-30T00:42:16.485Z,0.00
2023-06-30T00:47:16.396Z,0.00
2023-06-30T00:52:16.338Z,0.00
2023-06-30T00:57:16.270Z,0.00
2023-06-30T01:02:16.227Z,0.00
2023-06-30T01:07:16.238Z,0.00
2023-06-30T01:12:16.069Z,0.00
2023-06-30T01:17:15.982Z,0.00
2023-06-30T01:22:15.902Z,0.00
2023-06-30T01:27:15.854Z,0.00
2023-06-30T01:32:15.816Z,0.00
2023-06-30T01:37:15.705Z,0.00
2023-06-30T01:42:15.687Z,0.00
2023-06-30T01:47:15.523Z,0.00
2023-06-30T01:52:15.528Z,0.00
2023-06-30T01:57:15.438Z,0.00
2023-06-30T02:02:15.361Z,0.00
2023-06-30T02:07:15.360Z,0.00
2023-06-30T02:12:15.268Z,0.00
2023-06-30T02:17:15.209Z,0.00
2023-06-30T02:22:15.145Z,0.00
2023-06-30T02:27:15.013Z,0.00
2023-06-30T02:32:14.980Z,0.00
2023-06-30T02:37:14.937Z,0.00
2023-06-30T02:42:14.845Z,0.00
2023-06-30T02:47:14.787Z,0.00
2023-06-30T02:52:14.727Z,0.00
2023-06-30T02:57:14.599Z,0.00
2023-06-30T03:02:14.779Z,0.00
2023-06-30T03:07:14.649Z,0.00
2023-06-30T03:12:14.401Z,0.00
2023-06-30T03:17:14.382Z,0.00
2023-06-30T03:22:14.312Z,0.00
2023-06-30T03:27:14.189Z,0.00
2023-06-30T03:32:14.164Z,0.00
2023-06-30T03:37:14.096Z,0.00
2023-06-30T03:42:14.017Z,0.00
2023-06-30T03:47:13.936Z,0.00
2023-06-30T03:52:13.932Z,0.00
2023-06-30T03:57:13.853Z,0.00
2023-06-30T04:02:13.873Z,0.00
2023-06-30T04:07:13.787Z,0.00
2023-06-30T04:12:13.693Z,0.00
2023-06-30T04:17:25.055Z,0.00
2023-06-30T04:22:17.482Z,0.00
2023-06-30T04:27:17.457Z,0.00
2023-06-30T04:32:17.488Z,0.00
2023-06-30T04:37:17.315Z,5.62
2023-06-30T04:42:17.198Z,5.62
2023-06-30T04:47:17.140Z,5.62
2023-06-30T04:52:17.067Z,5.62
2023-06-30T04:57:17.036Z,5.62
2023-06-30T05:02:16.971Z,11.25
2023-06-30T05:07:16.967Z,11.25
2023-06-30T05:12:16.778Z,11.25
2023-06-30T05:17:16.883Z,11.25
2023-06-30T05:22:16.672Z,16.88
2023-06-30T05:27:16.637Z,11.25
2023-06-30T05:32:16.537Z,22.50
2023-06-30T05:37:16.477Z,16.88
2023-06-30T05:42:16.426Z,16.88
2023-06-30T05:47:16.352Z,22.50
2023-06-30T05:52:16.260Z,22.50
2023-06-30T05:57:16.193Z,16.88
2023-06-30T06:02:16.230Z,11.25
2023-06-30T06:07:16.144Z,16.88
2023-06-30T06:12:16.016Z,28.12
2023-06-30T06:17:15.962Z,28.12
2023-06-30T06:22:15.877Z,22.50
2023-06-30T06:27:15.852Z,28.12
2023-06-30T06:32:15.744Z,28.12
2023-06-30T06:37:15.708Z,28.12
2023-06-30T06:42:15.614Z,22.50
2023-06-30T06:47:15.704Z,22.50
2023-06-30T06:52:15.628Z,22.50
2023-06-30T06:57:15.512Z,28.12
2023-06-30T07:02:15.465Z,22.50
2023-06-30T07:07:15.354Z,22.50
2023-06-30T07:12:15.215Z,22.50
2023-06-30T07:17:15.165Z,28.12
2023-06-30T07:22:15.158Z,28.12
2023-06-30T07:27:15.056Z,28.12
2023-06-30T07:32:15.909Z,28.12
2023-06-30T07:37:14.911Z,45.00
2023-06-30T07:42:14.820Z,67.50
2023-06-30T07:47:14.757Z,101.25
2023-06-30T07:52:14.670Z,90.00
2023-06-30T07:57:14.605Z,106.88
2023-06-30T08:02:14.606Z,90.00
2023-06-30T08:07:14.561Z,101.25
2023-06-30T08:12:14.416Z,78.75
2023-06-30T08:17:14.394Z,95.62
2023-06-30T08:22:15.316Z,84.38
2023-06-30T08:27:14.258Z,73.12
2023-06-30T08:32:14.157Z,61.88
2023-06-30T08:37:14.092Z,90.00
2023-06-30T08:42:14.045Z,112.50
2023-06-30T08:47:14.029Z,191.25
2023-06-30T08:52:14.021Z,202.50
2023-06-30T08:57:13.859Z,174.38
2023-06-30T09:02:13.869Z,123.75
2023-06-30T09:07:13.831Z,106.88
2023-06-30T09:12:13.776Z,101.25
2023-06-30T09:17:13.699Z,112.50
2023-06-30T09:22:54.275Z,157.50
2023-06-30T09:27:14.500Z,163.12
2023-06-30T09:32:13.508Z,241.88
2023-06-30T09:37:13.307Z,320.62
2023-06-30T09:42:13.216Z,331.88
2023-06-30T09:47:13.166Z,337.50
2023-06-30T09:52:13.121Z,320.62
2023-06-30T09:57:13.042Z,337.50
2023-06-30T10:02:12.980Z,376.88
2023-06-30T10:07:12.940Z,343.12
2023-06-30T10:12:12.855Z,292.50
2023-06-30T10:17:12.834Z,348.75
2023-06-30T10:22:12.745Z,331.88
2023-06-30T10:27:12.623Z,281.25
2023-06-30T10:32:12.554Z,298.12
2023-06-30T10:37:12.521Z,320.62
2023-06-30T10:42:12.551Z,331.88
2023-06-30T10:47:12.478Z,348.75
2023-06-30T10:52:12.399Z,354.38
2023-06-30T10:57:12.281Z,393.75
2023-06-30T11:02:12.249Z,388.12
2023-06-30T11:07:12.288Z,309.38
2023-06-30T11:12:12.036Z,298.12
2023-06-30T11:17:12.044Z,275.62
2023-06-30T11:22:12.051Z,320.62
2023-06-30T11:27:11.875Z,315.00
2023-06-30T11:32:11.828Z,298.12
2023-06-30T11:37:11.803Z,343.12
2023-06-30T11:42:11.730Z,433.12
2023-06-30T11:47:11.648Z,376.88
2023-06-30T11:52:11.541Z,315.00
2023-06-30T11:57:11.440Z,360.00
2023-06-30T12:02:11.400Z,343.12
2023-06-30T12:07:11.397Z,270.00
2023-06-30T12:12:11.291Z,320.62
2023-06-30T12:17:11.234Z,309.38
2023-06-30T12:22:11.147Z,320.62
2023-06-30T12:27:11.097Z,225.00
2023-06-30T12:32:11.012Z,275.62
2023-06-30T12:37:11.029Z,264.38
2023-06-30T12:42:10.909Z,264.38
2023-06-30T12:47:10.893Z,275.62
2023-06-30T12:52:10.800Z,241.88
2023-06-30T12:57:10.647Z,140.62
2023-06-30T13:02:10.657Z,135.00
2023-06-30T13:07:10.679Z,174.38
2023-06-30T13:12:10.505Z,236.25
2023-06-30T13:17:10.416Z,219.38
2023-06-30T13:22:10.370Z,258.75
2023-06-30T13:27:10.291Z,286.88
2023-06-30T13:32:10.214Z,168.75
2023-06-30T13:37:10.176Z,163.12
2023-06-30T13:42:10.316Z,219.38
2023-06-30T13:47:10.018Z,292.50
2023-06-30T13:52:09.967Z,180.00
2023-06-30T13:57:10.123Z,241.88
2023-06-30T14:02:09.957Z,219.38
2023-06-30T14:07:09.764Z,129.38
2023-06-30T14:12:09.734Z,174.38
2023-06-30T14:17:09.645Z,191.25
2023-06-30T14:22:09.650Z,90.00
2023-06-30T14:27:09.510Z,95.62
2023-06-30T14:32:09.431Z,118.12
2023-06-30T14:37:10.242Z,174.38
2023-06-30T14:42:22.972Z,157.50
2023-06-30T14:47:10.245Z,140.62
2023-06-30T14:52:09.253Z,151.88
2023-06-30T14:57:09.146Z,151.88
2023-06-30T15:02:09.112Z,140.62
2023-06-30T15:07:10.000Z,135.00
2023-06-30T15:12:08.979Z,146.25
2023-06-30T15:17:08.886Z,135.00
2023-06-30T15:22:08.837Z,123.75
2023-06-30T15:27:08.728Z,106.88
2023-06-30T15:32:09.529Z,112.50
2023-06-30T15:37:08.605Z,112.50
2023-06-30T15:42:08.581Z,101.25
2023-06-30T15:47:08.493Z,101.25
2023-06-30T15:52:08.480Z,95.62
2023-06-30T15:57:08.319Z,78.75
2023-06-30T16:02:08.281Z,90.00
2023-06-30T16:07:08.213Z,101.25
2023-06-30T16:12:08.163Z,106.88
2023-06-30T16:17:08.180Z,101.25
2023-06-30T16:22:08.006Z,95.62
2023-06-30T16:27:08.759Z,95.62
2023-06-30T16:32:07.880Z,95.62
2023-06-30T16:37:07.835Z,90.00
2023-06-30T16:42:07.734Z,90.00
2023-06-30T16:47:07.766Z,90.00
2023-06-30T16:52:07.613Z,95.62
2023-06-30T16:57:07.556Z,90.00
2023-06-30T17:02:07.547Z,90.00
2023-06-30T17:07:07.441Z,90.00
2023-06-30T17:12:07.339Z,90.00
2023-06-30T17:17:07.391Z,78.75
2023-06-30T17:22:07.237Z,84.38
2023-06-30T17:27:07.259Z,84.38
2023-06-30T17:32:07.188Z,67.50
2023-06-30T17:37:07.145Z,67.50
2023-06-30T17:42:06.965Z,56.25
2023-06-30T17:47:06.913Z,50.62
2023-06-30T17:52:06.885Z,50.62
2023-06-30T17:57:06.748Z,45.00
2023-06-30T18:02:06.815Z,45.00
2023-06-30T18:07:06.655Z,45.00
2023-06-30T18:12:06.571Z,39.38
2023-06-30T18:17:06.546Z,39.38
2023-06-30T18:22:06.462Z,33.75
2023-06-30T18:27:06.400Z,28.12
2023-06-30T18:32:06.408Z,28.12
2023-06-30T18:37:06.333Z,22.50
2023-06-30T18:42:06.285Z,22.50
2023-06-30T18:47:06.281Z,16.88
2023-06-30T18:52:06.055Z,16.88
2023-06-30T18:57:05.999Z,16.88
2023-06-30T19:02:05.922Z,11.25
2023-06-30T19:07:05.955Z,11.25
2023-06-30T19:12:05.771Z,11.25
2023-06-30T19:17:05.821Z,5.62
2023-06-30T19:22:05.695Z,5.62
2023-06-30T19:27:05.606Z,5.62
2023-06-30T19:32:05.545Z,0.00
2023-06-30T19:37:05.451Z,0.00
2023-06-30T19:42:05.384Z,0.00
2023-06-30T19:47:05.359Z,0.00
2023-06-30T19:52:05.257Z,0.00
2023-06-30T19:57:05.218Z,0.00
2023-06-30T20:02:05.277Z,0.00
2023-06-30T20:07:05.247Z,0.00
2023-06-30T20:12:05.045Z,0.00
2023-06-30T20:17:05.036Z,0.00
2023-06-30T20:22:04.911Z,0.00
2023-06-30T20:27:04.810Z,0.00
2023-06-30T20:32:04.807Z,0.00
2023-06-30T20:37:04.674Z,0.00
2023-06-30T20:42:04.671Z,0.00
2023-06-30T20:47:04.701Z,0.00
2023-06-30T20:52:04.451Z,0.00
2023-06-30T20:57:04.407Z,0.00
2023-06-30T21:02:04.533Z,0.00
2023-06-30T21:07:04.300Z,0.00
2023-06-30T21:12:05.110Z,0.00
2023-06-30T21:17:04.132Z,0.00
2023-06-30T21:22:04.071Z,0.00
2023-06-30T21:27:04.030Z,0.00
2023-06-30T21:32:04.129Z,0.00
2023-06-30T21:37:03.910Z,0.00
2023-06-30T21:42:03.963Z,0.00
2023-06-30T21:47:03.731Z,0.00
2023-06-30T21:52:03.774Z,0.00
2023-06-30T21:57:03.575Z,0.00
2023-06-30T22:02:03.723Z,0.00
2023-06-30T22:07:03.479Z,0.00
2023-06-30T22:12:03.471Z,0.00
2023-06-30T22:17:03.356Z,0.00
2023-06-30T22:22:03.282Z,0.00
2023-06-30T22:27:03.212Z,0.00
2023-06-30T22:32:03.150Z,0.00
2023-06-30T22:37:03.089Z,0.00
2023-06-30T22:42:02.998Z,0.00
2023-06-30T22:47:02.979Z,0.00
2023-06-30T22:52:02.891Z,0.00
2023-06-30T22:57:02.909Z,0.00
2023-06-30T23:02:02.770Z,0.00
2023-06-30T23:07:02.700Z,0.00
2023-06-30T23:12:02.623Z,0.00
2023-06-30T23:17:02.734Z,0.00
2023-06-30T23:22:02.452Z,0.00
2023-06-30T23:27:02.495Z,0.00
2023-06-30T23:32:04.082Z,0.00
2023-06-30T23:37:02.401Z,0.00
2023-06-30T23:42:02.212Z,0.00
2023-06-30T23:47:02.193Z,0.00
2023-06-30T23:52:02.114Z,0.00
2023-06-30T23:57:02.145Z,0.00
